Ryderwood, WA

4:38 AM PDT on October 21, 2014 (GMT -0700)
Delameter Rd | Change Station
CLOSE
Current Station
Personal Weather Station
Location: Castle Rock, WA
Elevation: 215 ft
Nearby Weather Stations

Elev 215 ft 46.26 °N, 122.98 °W | Updated 9 seconds ago

Rain
Rain
54.0 °F
Feels Like 54.0 °F
N
0.0
Wind Variable Wind from NW
Gusts 2.0 mph

Today
High -- | Low -- °F
--% Chance of Precip.
Yesterday
High -- | Low -- °F
Precip. -- in
7:37 AM 6:14 PM
Waning Crescent, 6% visible
Pressure 29.92 in
Visibility 10.0 miles
Clouds Mostly Cloudy 1400 ft
Mostly Cloudy 2000 ft
Overcast 5500 ft
Dew Point 53 °F
Humidity 96%
Rainfall 0.14 in
Snow Depth Not available.
UV 0 out of 12
Pollen .40 out of 12
Air Quality Not available.
Flu Activity Sporadic
METAR KKLS 211135Z AUTO 16009G14KT 10SM BKN014 BKN020 OVC055 13/09 A2992 RMK AO1

More Conditions Fewer Conditions

Pressure 29.92 in
Visibility 10.0 miles
Clouds Mostly Cloudy 1400 ft
Mostly Cloudy 2000 ft
Overcast 5500 ft
Dew Point 53 °F
Humidity 96%
Rainfall 0.14 in
Snow Depth Not available.
UV 0 out of 12
Pollen .40 out of 12
Air Quality Not available.
Flu Activity Sporadic
METAR KKLS 211135Z AUTO 16009G14KT 10SM BKN014 BKN020 OVC055 13/09 A2992 RMK AO1

More Conditions Fewer Conditions

10-Day Weather Forecast

Almanac

Astronomy

Oct. 21, 2014 Rise Set
Actual Time 7:37 AM PDT 6:14 PM PDT
Civil Twilight 7:07 AM PDT 6:45 PM PDT
Nautical Twilight 6:32 AM PDT 7:20 PM PDT
Astronomical Twilight 5:57 AM PDT 7:55 PM PDT
Moon 5:20 AM PDT 5:17 PM PDT
Length of Visible Light 11h 38m
Length of Day
10h 36m
Tomorrow will be 3m 6s shorter.
Waning Crescent, 6% of the Moon is Illuminated
Today
Waning Crescent
Oct 23
New
Oct 30
First Quarter
Nov 6
Full
Nov 14
Last Quarter

Today's Extremes

State Highs State Lows

Community

WunderPhotos

Upload Photos

1,763,626 photos uploaded!

Nearby

Snow Depth

Station Depth Elevation
Sheep Canyon 0 in 4030 ft
Spirit Lake 0 in 3120 ft
Swift Creek 0 in 3770 ft
June Lake 0 in 3340 ft
Lone Pine 0 in 3800 ft

Earthquake Activity

City Distance Mag. Time & Date
No recent earthquake activity has been reported nearby.
Minimum magnitude displayed is 2.5.

Coastal Water Temperatures

Place Temperature
Astoria, OR 62.1 °F
Westport, WA 60.1 °F

Nearby Weather Stations